Time;durP1;ratioP1;P1;durP2;ratioP2;P2;SDS_P1;SDS_P2;PMS_P1;PMS_P2;Temp;Humidity;BMP_temperature;BMP_pressure;BME280_temperature;BME280_humidity;BME280_pressure;Samples;Min_cycle;Max_cycle;Signal;HPM_P1;HPM_P2
2021/07/18 00:00:38;;;;;;;19.00;10.95;;;;;;;20.26;97.49;98772.58;4404367;79;21106;-85
2021/07/18 00:06:41;;;;;;;17.15;12.00;;;;;;;20.32;97.69;98761.08;4338178;80;21086;-85
2021/07/18 00:12:43;;;;;;;20.17;11.60;;;;;;;20.34;97.66;98743.34;4324154;80;21183;-84
2021/07/18 00:18:46;;;;;;;19.92;14.15;;;;;;;20.39;97.85;98742.16;4329353;80;21103;-84
2021/07/18 00:24:52;;;;;;;15.95;10.82;;;;;;;20.43;97.94;98754.56;4328764;80;21038;-83
2021/07/18 00:30:54;;;;;;;11.97;9.23;;;;;;;20.45;99.08;98766.02;4344105;80;21043;-83
2021/07/18 00:37:37;;;;;;;10.08;8.03;;;;;;;20.31;99.60;98802.61;4380635;79;21047;-83
2021/07/18 00:43:45;;;;;;;13.78;8.95;;;;;;;20.16;98.98;98796.09;4412494;79;21039;-84
2021/07/18 00:56:41;;;;;;;18.92;9.18;;;;;;;20.09;98.85;98782.37;4411227;79;21035;-85
2021/07/18 01:02:45;;;;;;;18.42;8.50;;;;;;;20.14;98.84;98767.17;4294339;81;21072;-84
2021/07/18 01:08:48;;;;;;;18.60;10.53;;;;;;;20.18;99.08;98763.09;4298488;81;21051;-84
2021/07/18 01:14:58;;;;;;;15.98;9.78;;;;;;;20.22;99.11;98775.47;4409161;79;21028;-83
2021/07/18 01:21:00;;;;;;;15.85;10.08;;;;;;;20.23;99.22;98786.77;4406870;79;21015;-84
2021/07/18 01:27:09;;;;;;;12.18;9.53;;;;;;;20.19;99.87;98788.86;4413778;79;21016;-85
2021/07/18 01:33:10;;;;;;;18.62;10.68;;;;;;;20.22;99.78;98776.09;4421616;79;21110;-84
2021/07/18 01:39:17;;;;;;;15.13;10.03;;;;;;;20.27;100.00;98780.48;4389686;79;21044;-83
2021/07/18 01:45:24;;;;;;;;;;;;;;;20.28;99.75;98786.83;4406175;79;21017;-83
2021/07/18 01:51:27;;;;;;;13.23;9.93;;;;;;;20.26;100.00;98812.28;4408837;79;20114;-85
2021/07/18 02:04:23;;;;;;;12.60;9.73;;;;;;;20.09;100.00;98822.67;4407977;79;21083;-84
2021/07/18 02:10:24;;;;;;;10.28;8.93;;;;;;;19.96;100.00;98805.81;4390167;79;21022;-83
2021/07/18 02:16:30;;;;;;;13.32;9.05;;;;;;;19.76;100.00;98830.22;4402157;79;21031;-84
2021/07/18 02:22:46;;;;;;;13.65;8.90;;;;;;;19.73;100.00;98801.94;4420979;79;21088;-84
2021/07/18 02:28:51;;;;;;;11.50;8.48;;;;;;;19.81;100.00;98804.05;4411991;79;21009;-85
2021/07/18 02:34:55;;;;;;;22.93;11.43;;;;;;;19.64;100.00;98815.06;4401451;79;21531;-84
2021/07/18 02:40:59;;;;;;;15.32;8.75;;;;;;;19.67;100.00;98812.03;4418988;79;21050;-85
2021/07/18 02:47:05;;;;;;;12.10;8.53;;;;;;;19.73;100.00;98814.44;4426342;79;21038;-83
2021/07/18 02:53:23;;;;;;;9.60;7.97;;;;;;;19.58;100.00;98814.64;4416785;79;21301;-85
2021/07/18 02:59:25;;;;;;;16.27;7.80;;;;;;;19.54;99.81;98787.00;4415426;79;21011;-83
2021/07/18 03:05:30;;;;;;;11.60;8.65;;;;;;;19.49;99.95;98783.38;4399211;79;21561;-82
2021/07/18 03:11:38;;;;;;;10.45;8.13;;;;;;;19.43;99.50;98774.63;4426251;79;21096;-84
2021/07/18 03:17:43;;;;;;;9.90;8.08;;;;;;;19.51;100.00;98762.88;4410163;79;21091;-84
2021/07/18 03:23:57;;;;;;;13.40;8.50;;;;;;;19.61;99.89;98765.97;4402812;79;21059;-84
2021/07/18 03:30:00;;;;;;;17.02;8.75;;;;;;;19.37;100.00;98773.61;4408221;79;21054;-84
2021/07/18 03:36:13;;;;;;;10.08;8.78;;;;;;;19.46;100.00;98775.14;4414000;79;21504;-82
2021/07/18 03:42:14;;;;;;;14.05;7.87;;;;;;;19.51;100.00;98771.83;4422605;79;21059;-84
2021/07/18 03:48:15;;;;;;;8.90;8.00;;;;;;;19.45;100.00;98780.53;4395589;79;21050;-84
2021/07/18 03:54:17;;;;;;;9.65;7.97;;;;;;;19.52;100.00;98774.77;4400206;79;21594;-84
2021/07/18 04:00:21;;;;;;;10.35;8.10;;;;;;;19.61;100.00;98778.45;4340630;80;21111;-84
2021/07/18 04:06:33;;;;;;;10.93;8.43;;;;;;;19.60;100.00;98791.39;4415300;79;21332;-84
2021/07/18 04:12:34;;;;;;;14.47;8.35;;;;;;;19.71;100.00;98801.59;4390603;79;21023;-84
2021/07/18 04:18:35;;;;;;;13.20;7.67;;;;;;;19.78;100.00;98808.34;4425534;78;21073;-84
2021/07/18 04:24:37;;;;;;;11.25;8.83;;;;;;;19.77;100.00;98810.34;4418172;79;21023;-83
2021/07/18 04:30:41;;;;;;;13.75;8.25;;;;;;;19.89;100.00;98810.17;4411728;79;21516;-84
2021/07/18 04:36:42;;;;;;;11.30;9.45;;;;;;;19.97;100.00;98797.64;4406809;79;21138;-84
2021/07/18 04:42:46;;;;;;;11.55;8.65;;;;;;;20.07;100.00;98814.62;4404246;79;21068;-84
2021/07/18 04:48:47;;;;;;;14.47;9.83;;;;;;;20.17;100.00;98808.00;4427284;79;21618;-84
2021/07/18 04:54:59;;;;;;;13.83;9.68;;;;;;;20.10;100.00;98806.78;4405735;79;21056;-84
2021/07/18 05:01:05;;;;;;;20.40;10.88;;;;;;;20.24;100.00;98814.72;4421247;79;21033;-84
2021/07/18 05:07:08;;;;;;;18.77;10.78;;;;;;;20.26;100.00;98807.33;4404885;79;21499;-83
2021/07/18 05:13:09;;;;;;;13.93;11.65;;;;;;;20.37;100.00;98805.00;4395925;79;21525;-84
2021/07/18 05:19:19;;;;;;;17.90;12.90;;;;;;;20.52;100.00;98810.27;4419998;79;21057;-83
2021/07/18 05:25:24;;;;;;;21.90;16.10;;;;;;;20.62;100.00;98804.99;4397837;79;21135;-82
2021/07/18 05:31:31;;;;;;;18.05;14.90;;;;;;;20.70;100.00;98811.28;4403079;79;21089;-82
2021/07/18 05:37:35;;;;;;;;;;;;;;;20.86;100.00;98821.50;4402243;79;21045;-82
2021/07/18 05:43:36;;;;;;;27.93;17.70;;;;;;;21.00;100.00;98819.03;4385748;78;20187;-81
2021/07/18 05:49:41;;;;;;;28.30;18.55;;;;;;;21.09;100.00;98836.45;4406316;79;21043;-82
2021/07/18 05:55:45;;;;;;;20.43;14.50;;;;;;;21.15;100.00;98832.66;4406578;79;21315;-82
2021/07/18 06:01:49;;;;;;;22.95;17.45;;;;;;;21.21;100.00;98830.85;4391368;79;21018;-82
2021/07/18 06:07:51;;;;;;;24.70;19.32;;;;;;;21.33;100.00;98839.02;4418747;79;20996;-82
2021/07/18 06:14:11;;;;;;;29.42;19.52;;;;;;;21.38;100.00;98850.95;4404394;79;21013;-83
2021/07/18 06:20:14;;;;;;;25.85;19.00;;;;;;;21.42;100.00;98847.44;4410541;79;21079;-82
2021/07/18 06:26:16;;;;;;;27.17;19.32;;;;;;;21.49;100.00;98849.96;4427053;79;21103;-81
2021/07/18 06:32:25;;;;;;;29.87;19.60;;;;;;;21.54;100.00;98846.61;4414330;79;21380;-82
2021/07/18 06:38:35;;;;;;;28.07;21.15;;;;;;;21.54;100.00;98854.96;4426968;79;21019;-82
2021/07/18 06:44:47;;;;;;;34.48;22.22;;;;;;;21.57;100.00;98843.70;4409556;78;21076;-84
2021/07/18 06:50:50;;;;;;;27.93;20.92;;;;;;;21.69;100.00;98843.47;4380137;79;21082;-84
2021/07/18 06:56:52;;;;;;;23.38;19.40;;;;;;;21.87;100.00;98856.19;4421708;79;22032;-83
2021/07/18 07:03:00;;;;;;;25.00;20.92;;;;;;;22.01;100.00;98864.03;4283721;79;9999594;-81
2021/07/18 07:09:01;;;;;;;27.15;20.90;;;;;;;22.08;100.00;98875.53;4412723;79;21044;-84
2021/07/18 07:15:07;;;;;;;27.17;19.77;;;;;;;22.01;100.00;98865.42;4403327;79;21079;-82
2021/07/18 07:27:57;;;;;;;25.72;19.52;;;;;;;22.17;100.00;98866.62;4401380;79;21100;-84
2021/07/18 07:33:58;;;;;;;25.40;19.65;;;;;;;22.12;100.00;98868.59;4391027;79;21055;-84
2021/07/18 07:40:19;;;;;;;24.87;19.80;;;;;;;22.18;100.00;98864.59;4415213;79;21039;-83
2021/07/18 07:46:20;;;;;;;25.75;18.57;;;;;;;22.27;100.00;98859.09;4415911;79;21053;-84
2021/07/18 07:52:32;;;;;;;24.00;18.12;;;;;;;22.19;100.00;98863.38;4424985;79;21004;-84
2021/07/18 07:58:34;;;;;;;22.55;17.30;;;;;;;22.28;100.00;98869.00;4402003;79;21020;-83
2021/07/18 08:04:37;;;;;;;27.05;18.82;;;;;;;22.27;100.00;98878.61;4420657;79;21753;-83
2021/07/18 08:10:46;;;;;;;20.52;17.27;;;;;;;22.29;100.00;98877.52;4406580;79;21019;-83
2021/07/18 08:16:47;;;;;;;25.75;18.30;;;;;;;22.54;100.00;98864.20;4417640;79;21123;-82
2021/07/18 08:22:51;;;;;;;24.65;18.57;;;;;;;22.85;100.00;98864.95;4394672;79;21523;-82
2021/07/18 08:28:57;;;;;;;21.97;17.00;;;;;;;23.08;100.00;98860.20;4402349;79;21003;-84
2021/07/18 08:35:05;;;;;;;21.57;16.42;;;;;;;23.19;99.89;98861.17;4405586;79;21090;-83
2021/07/18 08:41:12;;;;;;;20.23;16.52;;;;;;;23.18;99.63;98868.77;4272666;81;21021;-83
2021/07/18 08:47:20;;;;;;;29.02;17.25;;;;;;;23.15;99.23;98871.70;4410241;79;21070;-83
2021/07/18 08:53:28;;;;;;;21.48;16.90;;;;;;;23.22;99.24;98871.42;4411896;79;21047;-81
2021/07/18 08:59:31;;;;;;;24.15;17.82;;;;;;;23.22;99.34;98875.61;4290245;79;9999912;-83
2021/07/18 09:05:33;;;;;;;23.38;18.12;;;;;;;23.26;99.01;98875.50;4397535;79;21062;-82
2021/07/18 09:11:35;;;;;;;26.35;19.20;;;;;;;23.27;98.74;98885.42;4424349;78;21003;-83
2021/07/18 09:17:39;;;;;;;20.23;17.73;;;;;;;23.25;98.52;98887.28;4407331;79;21618;-83
2021/07/18 09:23:40;;;;;;;20.00;16.70;;;;;;;23.36;98.59;98880.63;4411118;79;21020;-82
2021/07/18 09:30:14;;;;;;;21.68;17.67;;;;;;;23.74;99.13;98866.98;4397406;79;21075;-83
2021/07/18 09:36:17;;;;;;;21.52;17.27;;;;;;;24.21;98.85;98867.91;4415143;79;21023;-83
2021/07/18 09:42:48;;;;;;;28.35;18.23;;;;;;;24.24;97.79;98883.11;4408714;79;21019;-83
2021/07/18 09:48:52;;;;;;;24.40;18.70;;;;;;;24.02;97.14;98893.73;4417127;79;21064;-84
2021/07/18 09:54:58;;;;;;;23.65;18.82;;;;;;;23.73;96.74;98894.78;4402697;79;21041;-79
2021/07/18 10:01:02;;;;;;;25.45;18.85;;;;;;;23.65;96.42;98869.02;4435133;79;21308;-83
2021/07/18 10:07:08;;;;;;;23.45;18.07;;;;;;;23.48;96.42;98878.31;4389359;79;21567;-84
2021/07/18 10:13:09;;;;;;;21.50;17.67;;;;;;;23.44;96.36;98874.91;4403641;79;21038;-83
2021/07/18 10:19:11;;;;;;;21.10;17.37;;;;;;;23.57;96.21;98864.98;4393120;79;21019;-83
2021/07/18 10:25:19;;;;;;;21.12;16.20;;;;;;;23.73;96.06;98877.23;4393836;79;21051;-84
2021/07/18 10:31:48;;;;;;;20.88;16.55;;;;;;;23.80;95.65;98890.30;4401724;78;21029;-84
2021/07/18 10:38:23;;;;;;;18.48;16.52;;;;;;;23.72;95.57;98882.67;4407670;79;21064;-84
2021/07/18 10:44:26;;;;;;;20.88;18.02;;;;;;;23.54;95.55;98880.64;4415999;79;21066;-84
2021/07/18 10:50:49;;;;;;;23.57;17.85;;;;;;;23.32;95.67;98879.23;4418554;79;22055;-84
2021/07/18 10:56:58;;;;;;;23.70;18.27;;;;;;;23.16;95.66;98880.25;4401209;79;21030;-83
2021/07/18 11:03:11;;;;;;;23.75;19.00;;;;;;;22.98;95.70;98882.98;4274462;79;10000033;-84
2021/07/18 11:09:18;;;;;;;23.75;19.15;;;;;;;22.77;96.09;98888.03;4408098;79;21027;-83
2021/07/18 11:15:32;;;;;;;24.98;19.30;;;;;;;22.81;96.01;98888.05;4426986;79;21079;-83
2021/07/18 11:21:33;;;;;;;27.85;20.62;;;;;;;22.85;96.20;98882.30;4397719;79;21550;-82
2021/07/18 11:27:42;;;;;;;27.45;19.23;;;;;;;22.95;96.18;98864.36;4411870;79;21043;-83
2021/07/18 11:33:57;;;;;;;28.25;20.62;;;;;;;23.07;96.42;98867.64;4402152;79;21529;-83
2021/07/18 11:46:52;;;;;;;26.73;18.65;;;;;;;23.25;96.48;98867.73;4407371;79;21053;-83
2021/07/18 11:52:53;;;;;;;24.60;17.42;;;;;;;23.21;96.11;98870.63;4392841;79;21911;-84
2021/07/18 12:05:37;;;;;;;22.70;15.68;;;;;;;23.20;95.84;98873.89;4415886;78;21004;-84
2021/07/18 12:11:48;;;;;;;23.50;14.70;;;;;;;23.21;95.46;98853.09;4404237;78;21041;-83
2021/07/18 12:18:08;;;;;;;20.10;15.10;;;;;;;23.27;95.53;98835.94;4400013;78;21019;-83
2021/07/18 12:24:34;;;;;;;23.35;15.48;;;;;;;23.36;95.55;98830.97;4406143;79;21027;-83
2021/07/18 12:30:36;;;;;;;27.07;17.27;;;;;;;23.43;95.70;98826.48;4274829;79;9999749;-82
2021/07/18 12:37:24;;;;;;;25.15;18.07;;;;;;;23.61;95.36;98813.90;4419684;79;21023;-82
2021/07/18 12:43:32;;;;;;;28.62;21.85;;;;;;;23.70;95.44;98809.70;4159143;83;21109;-83
2021/07/18 12:49:33;;;;;;;29.52;20.32;;;;;;;23.68;94.88;98819.19;4170693;82;21567;-83
2021/07/18 12:55:49;;;;;;;25.77;19.82;;;;;;;23.71;94.83;98819.65;4195377;83;21594;-84
2021/07/18 13:01:56;;;;;;;22.52;19.00;;;;;;;23.73;94.58;98838.89;4181196;82;21074;-84
2021/07/18 13:07:58;;;;;;;26.12;19.35;;;;;;;23.59;94.30;98851.30;4171789;82;21046;-83
2021/07/18 13:14:30;;;;;;;27.85;19.60;;;;;;;23.47;94.21;98840.45;4149698;83;21673;-83
2021/07/18 13:20:40;;;;;;;25.00;18.30;;;;;;;23.57;94.54;98841.98;4155570;82;21082;-82
2021/07/18 13:26:44;;;;;;;21.52;16.82;;;;;;;23.59;93.92;98831.12;4193314;82;21590;-83
2021/07/18 13:32:47;;;;;;;21.57;16.65;;;;;;;23.47;93.04;98821.50;4185477;82;21376;-84
2021/07/18 13:38:51;;;;;;;21.42;17.00;;;;;;;23.37;92.62;98826.92;4179981;83;21154;-81
2021/07/18 13:44:55;;;;;;;20.05;15.48;;;;;;;23.21;92.44;98822.38;4155759;82;20990;-82
2021/07/18 13:51:00;;;;;;;21.40;15.83;;;;;;;23.21;92.73;98798.64;4182846;83;21109;-83
2021/07/18 13:57:06;;;;;;;20.15;15.95;;;;;;;23.35;92.70;98782.70;4187930;82;21023;-83
2021/07/18 14:03:08;;;;;;;;;;;;;;;23.48;92.48;98780.53;4141173;82;22460;-83
2021/07/18 14:09:13;;;;;;;26.70;18.98;;;;;;;23.51;92.26;98778.20;4116845;83;20253;-82
2021/07/18 14:15:20;;;;;;;26.07;18.42;;;;;;;23.55;92.28;98770.45;4139358;83;21639;-83
2021/07/18 14:21:22;;;;;;;26.07;18.67;;;;;;;23.58;92.24;98771.52;4156936;82;21088;-83
2021/07/18 14:27:23;;;;;;;25.30;18.98;;;;;;;23.68;92.18;98768.25;4173992;82;21043;-83
2021/07/18 14:33:26;;;;;;;25.60;17.55;;;;;;;23.77;91.89;98778.64;4072008;82;9999579;-83
2021/07/18 14:39:27;;;;;;;24.05;17.32;;;;;;;23.90;91.98;98777.86;4194302;82;21060;-82
2021/07/18 14:45:28;;;;;;;23.30;17.25;;;;;;;24.17;92.26;98777.17;4197696;82;21077;-83
2021/07/18 14:51:29;;;;;;;23.62;17.55;;;;;;;24.46;92.23;98771.77;4161725;82;21040;-82
2021/07/18 14:57:46;;;;;;;20.90;17.60;;;;;;;24.60;91.62;98773.12;4188167;83;21105;-82
2021/07/18 15:03:49;;;;;;;19.87;17.10;;;;;;;24.65;91.30;98786.44;4187823;82;21089;-83
2021/07/18 15:09:50;;;;;;;31.35;18.62;;;;;;;24.68;91.08;98782.75;4172412;83;21098;-82
2021/07/18 15:15:53;;;;;;;23.15;17.55;;;;;;;24.71;91.03;98784.59;4145536;83;21062;-82
2021/07/18 15:21:56;;;;;;;24.30;17.12;;;;;;;24.70;90.93;98787.23;4158203;83;21023;-83
2021/07/18 15:27:58;;;;;;;23.30;16.85;;;;;;;24.75;91.04;98780.20;4153237;83;21092;-83
2021/07/18 15:34:00;;;;;;;20.35;16.90;;;;;;;24.76;91.21;98785.97;4028628;83;10000061;-82
2021/07/18 15:40:03;;;;;;;26.45;16.10;;;;;;;24.77;91.28;98781.91;4166778;82;21327;-82
2021/07/18 15:46:04;;;;;;;26.40;17.45;;;;;;;24.72;91.35;98783.95;4164948;82;21120;-83
2021/07/18 15:52:08;;;;;;;22.00;17.05;;;;;;;24.79;91.29;98785.80;4176218;83;21430;-83
2021/07/18 15:58:12;;;;;;;21.37;17.57;;;;;;;24.88;91.18;98801.75;4158144;83;21046;-83
2021/07/18 16:04:13;;;;;;;23.67;17.85;;;;;;;24.90;90.76;98806.27;4161607;83;21087;-83
2021/07/18 16:10:15;;;;;;;25.23;17.00;;;;;;;24.87;90.62;98807.22;4164752;83;21019;-82
2021/07/18 16:16:18;;;;;;;21.90;17.17;;;;;;;24.76;90.34;98794.37;4145682;82;22416;-82
2021/07/18 16:22:20;;;;;;;23.22;15.98;;;;;;;24.68;90.10;98775.11;4157240;82;21110;-82
2021/07/18 16:28:27;;;;;;;20.92;16.93;;;;;;;24.67;90.23;98770.63;4187892;82;21088;-82
2021/07/18 16:34:32;;;;;;;19.60;16.57;;;;;;;24.65;90.29;98785.83;4169152;83;21094;-82
2021/07/18 16:40:34;;;;;;;21.55;16.15;;;;;;;24.49;90.04;98802.99;4172789;83;22102;-82
2021/07/18 16:46:36;;;;;;;19.65;16.40;;;;;;;24.31;90.79;98813.48;4164751;82;21098;-83
2021/07/18 16:52:39;;;;;;;23.10;18.35;;;;;;;24.24;90.72;98805.44;4206881;83;21702;-82
2021/07/18 16:58:41;;;;;;;23.52;17.27;;;;;;;24.20;91.14;98798.61;4181158;82;21796;-81
2021/07/18 17:04:47;;;;;;;20.43;17.25;;;;;;;24.14;91.30;98801.11;4051441;82;9999816;-82
2021/07/18 17:10:55;;;;;;;11.97;9.10;;;;;;;24.19;91.78;98806.07;4151429;82;21031;-80
2021/07/18 17:16:59;;;;;;;12.15;9.33;;;;;;;23.73;79.14;98838.10;4151465;83;21436;-82
2021/07/18 17:23:04;;;;;;;13.18;9.28;;;;;;;22.99;80.14;98824.53;4155418;82;21553;-83
2021/07/18 17:29:06;;;;;;;13.50;8.83;;;;;;;22.80;82.68;98820.89;4159916;81;22003;-83
2021/07/18 17:35:08;;;;;;;14.93;9.63;;;;;;;22.66;83.96;98822.86;4133288;83;21037;-83
2021/07/18 17:41:10;;;;;;;11.28;10.08;;;;;;;22.51;84.02;98827.47;4172317;82;21031;-83
2021/07/18 17:47:16;;;;;;;12.43;9.50;;;;;;;22.43;84.28;98818.41;4169546;82;21083;-83
2021/07/18 17:53:19;;;;;;;12.50;10.00;;;;;;;22.22;84.35;98820.03;4151497;82;20998;-84
2021/07/18 17:59:23;;;;;;;13.38;9.98;;;;;;;22.16;84.51;98822.47;4138310;83;21122;-84
2021/07/18 18:05:23;;;;;;;12.05;10.32;;;;;;;21.93;84.84;98822.32;4056295;83;10000365;-84
2021/07/18 18:11:25;;;;;;;12.07;9.20;;;;;;;21.89;85.00;98826.47;4169014;82;21031;-84
2021/07/18 18:17:27;;;;;;;11.40;8.63;;;;;;;21.82;84.58;98817.76;4200421;83;21078;-84
2021/07/18 18:23:28;;;;;;;12.95;9.20;;;;;;;21.77;84.29;98812.00;4174119;83;21023;-83
2021/07/18 18:29:41;;;;;;;12.15;8.18;;;;;;;21.59;84.54;98804.25;4200963;81;21082;-83
2021/07/18 18:35:46;;;;;;;10.18;8.08;;;;;;;21.20;85.21;98809.03;4184560;82;21059;-83
2021/07/18 18:41:50;;;;;;;14.35;9.28;;;;;;;20.97;86.02;98806.02;4166719;82;21035;-84
2021/07/18 18:47:52;;;;;;;12.82;9.73;;;;;;;20.82;86.29;98802.13;4185503;82;21009;-84
2021/07/18 18:53:54;;;;;;;13.68;10.15;;;;;;;20.83;86.66;98800.14;4160792;82;21334;-83
2021/07/18 18:59:56;;;;;;;20.65;10.72;;;;;;;20.71;87.67;98804.48;4184059;82;21019;-83
2021/07/18 19:05:59;;;;;;;16.65;10.75;;;;;;;20.78;88.41;98808.41;4062803;83;9999610;-84
2021/07/18 19:12:01;;;;;;;20.00;11.45;;;;;;;20.84;88.93;98814.20;4154081;82;21074;-84
2021/07/18 19:18:03;;;;;;;21.00;12.40;;;;;;;20.86;89.08;98816.69;4201392;81;21044;-85
2021/07/18 19:24:08;;;;;;;15.35;12.10;;;;;;;20.71;89.71;98819.00;4157260;83;21091;-84
2021/07/18 19:30:13;;;;;;;15.88;13.05;;;;;;;20.62;89.93;98834.98;4209392;83;21026;-83
2021/07/18 19:36:15;;;;;;;18.02;13.45;;;;;;;20.51;90.13;98837.31;4157971;82;21084;-84
2021/07/18 19:42:23;;;;;;;23.52;13.68;;;;;;;20.54;90.58;98837.03;4165373;83;21037;-84
2021/07/18 19:48:23;;;;;;;16.17;12.80;;;;;;;20.55;90.97;98839.36;4175502;82;21105;-84
2021/07/18 19:54:38;;;;;;;16.80;13.28;;;;;;;20.61;91.36;98844.53;4180637;82;21564;-84
2021/07/18 20:07:49;;;;;;;19.00;13.75;;;;;;;20.45;91.79;98839.10;4166335;83;21110;-83
2021/07/18 20:14:01;;;;;;;20.00;13.53;;;;;;;20.45;92.61;98841.88;4154710;82;21122;-84
2021/07/18 20:26:46;;;;;;;22.65;13.95;;;;;;;20.45;93.34;98829.97;4349576;79;21056;-83
2021/07/18 20:32:48;;;;;;;21.65;14.13;;;;;;;20.38;93.39;98826.80;4344347;78;21779;-83
2021/07/18 20:38:51;;;;;;;21.33;14.18;;;;;;;20.35;93.97;98826.30;4329271;78;21070;-84
2021/07/18 20:44:59;;;;;;;19.52;14.33;;;;;;;20.39;94.19;98821.39;4340892;80;21101;-84
2021/07/18 20:51:01;;;;;;;18.23;12.88;;;;;;;20.43;94.25;98820.69;4362972;80;21067;-84
2021/07/18 20:57:03;;;;;;;23.27;14.28;;;;;;;20.44;94.41;98825.64;4336873;80;21131;-83
2021/07/18 21:03:14;;;;;;;18.87;13.62;;;;;;;20.42;94.37;98820.53;4343365;79;21033;-84
2021/07/18 21:09:22;;;;;;;18.48;13.18;;;;;;;20.24;94.58;98818.89;4316442;79;21688;-84
2021/07/18 21:15:24;;;;;;;24.82;13.50;;;;;;;20.11;94.77;98822.22;4336147;79;21042;-84
2021/07/18 21:21:31;;;;;;;18.02;13.55;;;;;;;19.94;95.47;98819.36;4322062;80;21118;-83
2021/07/18 21:27:35;;;;;;;19.98;14.68;;;;;;;20.02;95.90;98822.89;4293274;80;21098;-84
2021/07/18 21:33:41;;;;;;;22.07;13.70;;;;;;;20.00;95.87;98823.15;4316334;79;21102;-84
2021/07/18 21:39:46;;;;;;;21.25;15.13;;;;;;;20.05;96.42;98826.78;4316850;79;21075;-85
2021/07/18 21:45:48;;;;;;;21.15;13.83;;;;;;;20.01;96.53;98827.50;4305979;80;20997;-85
2021/07/18 21:51:50;;;;;;;21.77;14.95;;;;;;;20.10;96.75;98838.14;4308867;80;21015;-84
2021/07/18 21:57:52;;;;;;;14.18;12.58;;;;;;;20.06;96.90;98842.25;4313265;79;21052;-85
2021/07/18 22:03:57;;;;;;;19.40;14.43;;;;;;;20.14;96.99;98847.17;4319735;80;21111;-82
2021/07/18 22:10:00;;;;;;;24.20;14.38;;;;;;;20.05;97.00;98856.73;4289213;80;21080;-84
2021/07/18 22:16:01;;;;;;;22.82;13.78;;;;;;;20.09;97.41;98863.59;4326611;79;21823;-84
2021/07/18 22:22:03;;;;;;;18.42;13.00;;;;;;;19.97;97.16;98871.27;4283800;80;21089;-84
2021/07/18 22:28:13;;;;;;;27.90;13.95;;;;;;;20.06;97.54;98875.59;4328921;80;21609;-84
2021/07/18 22:34:15;;;;;;;17.37;12.85;;;;;;;20.14;97.54;98882.50;4317813;79;21025;-84
2021/07/18 22:40:18;;;;;;;16.80;12.93;;;;;;;20.25;97.46;98885.75;4305371;79;21003;-85
2021/07/18 22:46:20;;;;;;;17.70;13.05;;;;;;;20.28;97.20;98887.65;4333868;80;21570;-85
2021/07/18 22:52:29;;;;;;;19.75;13.53;;;;;;;20.26;97.06;98883.16;4323778;79;21506;-84
2021/07/18 22:58:30;;;;;;;22.20;13.35;;;;;;;20.18;97.04;98884.59;4304911;79;21059;-85
2021/07/18 23:04:31;;;;;;;17.12;13.48;;;;;;;20.28;97.22;98882.09;4319746;79;21091;-84
2021/07/18 23:10:34;;;;;;;21.10;13.20;;;;;;;20.29;96.77;98879.50;4306387;80;21037;-84
2021/07/18 23:16:35;;;;;;;22.20;13.80;;;;;;;20.20;96.99;98871.80;4344714;80;21014;-84
2021/07/18 23:22:41;;;;;;;21.52;14.40;;;;;;;20.23;97.16;98879.09;4312731;79;21036;-84
2021/07/18 23:29:05;;;;;;;25.95;13.58;;;;;;;20.22;97.27;98863.02;4325814;79;21775;-84
2021/07/18 23:35:16;;;;;;;23.42;15.15;;;;;;;20.25;97.51;98866.93;4355636;80;21055;-84
2021/07/18 23:41:17;;;;;;;19.57;14.63;;;;;;;20.28;97.50;98874.38;4323056;79;21093;-84
2021/07/18 23:47:23;;;;;;;18.00;13.55;;;;;;;20.20;97.50;98871.80;4319635;80;21601;-84
